createdAt,value
2023-03-16T00:01:23.919Z,65.28
2023-03-16T00:04:26.729Z,65.10
2023-03-16T00:07:29.283Z,64.90
2023-03-16T00:10:31.876Z,64.70
2023-03-16T00:13:34.467Z,64.29
2023-03-16T00:16:37.323Z,64.63
2023-03-16T00:19:39.893Z,64.74
2023-03-16T00:22:43.156Z,63.59
2023-03-16T00:25:45.663Z,63.68
2023-03-16T00:28:48.580Z,64.66
2023-03-16T00:31:52.353Z,63.96
2023-03-16T00:34:55.595Z,64.76
2023-03-16T00:37:58.266Z,64.97
2023-03-16T00:41:04.224Z,64.53
2023-03-16T00:44:06.886Z,65.07
2023-03-16T00:47:14.756Z,65.35
2023-03-16T00:50:17.277Z,65.35
2023-03-16T00:53:19.888Z,65.67
2023-03-16T00:56:22.710Z,65.80
2023-03-16T00:59:26.453Z,65.78
2023-03-16T01:02:29.055Z,65.89
2023-03-16T01:05:33.788Z,66.32
2023-03-16T01:08:40.785Z,66.00
2023-03-16T01:11:44.061Z,66.34
2023-03-16T01:14:47.175Z,66.59
2023-03-16T01:17:49.976Z,67.15
2023-03-16T01:20:53.487Z,67.49
2023-03-16T01:23:56.631Z,67.46
2023-03-16T01:26:59.469Z,66.87
2023-03-16T01:30:02.760Z,67.55
2023-03-16T01:33:06.492Z,67.67
2023-03-16T01:36:12.510Z,67.33
2023-03-16T01:39:22.208Z,67.26
2023-03-16T01:42:25.771Z,67.39
2023-03-16T01:46:14.300Z,67.18
2023-03-16T01:49:24.637Z,67.55
2023-03-16T01:52:35.872Z,67.28
2023-03-16T01:55:39.015Z,67.57
2023-03-16T01:58:45.649Z,67.28
2023-03-16T02:01:51.995Z,67.61
2023-03-16T02:05:09.736Z,67.07
2023-03-16T02:08:13.546Z,68.02
2023-03-16T02:11:19.813Z,68.11
2023-03-16T02:14:39.304Z,68.14
2023-03-16T02:17:43.899Z,68.30
2023-03-16T02:20:48.819Z,68.81
2023-03-16T02:23:52.332Z,69.02
2023-03-16T02:27:09.454Z,69.12
2023-03-16T02:30:18.879Z,68.89
2023-03-16T02:33:34.096Z,68.77
2023-03-16T02:36:38.688Z,69.35
2023-03-16T02:39:44.270Z,68.94
2023-03-16T02:42:59.034Z,68.56
2023-03-16T02:46:05.606Z,68.97
2023-03-16T02:49:17.929Z,69.23
2023-03-16T02:52:21.751Z,68.68
2023-03-16T02:55:24.319Z,69.30
2023-03-16T02:58:28.166Z,69.05
2023-03-16T03:01:32.604Z,69.11
2023-03-16T03:04:35.750Z,69.16
2023-03-16T03:07:38.587Z,69.70
2023-03-16T03:10:43.518Z,70.16
2023-03-16T03:13:47.197Z,70.39
2023-03-16T03:16:54.982Z,70.66
2023-03-16T03:19:58.893Z,71.05
2023-03-16T03:23:03.450Z,70.38
2023-03-16T03:26:06.568Z,71.19
2023-03-16T03:29:09.571Z,71.61
2023-03-16T03:32:12.910Z,71.60
2023-03-16T03:35:16.560Z,71.59
2023-03-16T03:38:19.421Z,71.49
2023-03-16T03:41:22.729Z,71.67
2023-03-16T03:44:27.489Z,72.19
2023-03-16T03:47:31.887Z,72.18
2023-03-16T03:50:35.689Z,72.48
2023-03-16T03:53:59.116Z,72.80
2023-03-16T03:57:22.066Z,72.58
2023-03-16T04:00:25.769Z,73.45
2023-03-16T04:03:28.972Z,73.26
2023-03-16T04:06:31.820Z,73.46
2023-03-16T04:09:34.547Z,73.04
2023-03-16T04:12:37.989Z,73.31
2023-03-16T04:15:42.733Z,73.59
2023-03-16T04:18:54.817Z,73.79
2023-03-16T04:21:59.009Z,73.74
2023-03-16T04:25:04.053Z,74.02
2023-03-16T04:28:08.537Z,74.32
2023-03-16T04:31:14.976Z,74.12
2023-03-16T04:34:25.187Z,74.70
2023-03-16T04:37:32.034Z,74.75
2023-03-16T04:40:34.944Z,74.42
2023-03-16T04:43:46.045Z,74.71
2023-03-16T04:46:54.976Z,74.71
2023-03-16T04:50:04.387Z,74.59
2023-03-16T04:53:07.174Z,74.46
2023-03-16T04:56:18.530Z,74.69
2023-03-16T04:59:24.197Z,74.88
2023-03-16T05:02:36.440Z,74.44
2023-03-16T05:05:39.666Z,74.76
2023-03-16T05:08:43.761Z,74.65
2023-03-16T05:11:46.350Z,74.86
2023-03-16T05:14:49.821Z,74.92
2023-03-16T05:18:03.359Z,74.59
2023-03-16T05:21:06.705Z,74.83
2023-03-16T05:24:23.773Z,74.85
2023-03-16T05:27:27.001Z,75.04
2023-03-16T05:30:30.255Z,74.55
2023-03-16T05:33:36.762Z,74.39
2023-03-16T05:36:45.167Z,74.20
2023-03-16T05:39:51.438Z,73.32
2023-03-16T05:42:58.193Z,75.07
2023-03-16T05:46:01.871Z,74.27
2023-03-16T05:49:04.707Z,73.94
2023-03-16T05:52:07.799Z,72.83
2023-03-16T05:55:14.614Z,73.38
2023-03-16T05:58:18.294Z,73.38
2023-03-16T06:01:21.889Z,72.85
2023-03-16T06:04:25.959Z,72.09
2023-03-16T06:07:29.236Z,71.65
2023-03-16T06:10:32.926Z,70.58
2023-03-16T06:13:35.927Z,71.05
2023-03-16T06:16:39.218Z,70.61
2023-03-16T06:19:42.140Z,70.86
2023-03-16T06:22:45.605Z,70.68
2023-03-16T06:25:49.085Z,70.36
2023-03-16T06:28:53.341Z,69.06
2023-03-16T06:31:57.232Z,67.78
2023-03-16T06:35:02.308Z,66.89
2023-03-16T06:38:05.533Z,66.96
2023-03-16T06:41:32.764Z,65.04
2023-03-16T06:44:35.385Z,64.18
2023-03-16T06:47:44.473Z,62.64
2023-03-16T06:50:47.139Z,60.78
2023-03-16T06:53:55.380Z,59.09
2023-03-16T06:56:58.578Z,58.02
2023-03-16T07:00:03.854Z,59.59
2023-03-16T07:03:08.102Z,61.32
2023-03-16T07:06:13.710Z,59.06
2023-03-16T07:09:18.150Z,57.83
2023-03-16T07:12:20.888Z,54.64
2023-03-16T07:15:26.875Z,54.46
2023-03-16T07:18:33.083Z,55.65
2023-03-16T07:21:39.613Z,58.18
2023-03-16T07:24:46.986Z,57.42
2023-03-16T07:27:49.770Z,57.89
2023-03-16T07:31:03.698Z,55.93
2023-03-16T07:34:12.585Z,55.61
2023-03-16T07:37:25.582Z,52.99
2023-03-16T07:40:31.694Z,49.07
2023-03-16T07:43:41.927Z,48.25
2023-03-16T07:46:45.548Z,48.32
2023-03-16T07:49:48.733Z,47.39
2023-03-16T07:52:51.983Z,47.67
2023-03-16T07:55:54.866Z,46.95
2023-03-16T07:58:57.892Z,43.76
2023-03-16T08:02:00.724Z,47.17
2023-03-16T08:05:03.824Z,45.29
2023-03-16T08:08:09.744Z,45.71
2023-03-16T08:11:14.519Z,48.36
2023-03-16T08:14:26.553Z,48.36
2023-03-16T08:17:55.801Z,49.19
2023-03-16T08:21:01.537Z,48.53
2023-03-16T08:24:04.506Z,50.45
2023-03-16T08:27:07.078Z,49.08
2023-03-16T08:30:13.059Z,48.68
2023-03-16T08:33:23.712Z,49.44
2023-03-16T08:36:31.295Z,50.28
2023-03-16T08:39:36.257Z,49.62
2023-03-16T08:42:44.417Z,49.15
2023-03-16T08:45:48.770Z,50.12
2023-03-16T08:48:55.824Z,49.31
2023-03-16T08:52:00.891Z,48.54
2023-03-16T08:55:07.165Z,47.60
2023-03-16T08:58:10.858Z,48.08
2023-03-16T09:01:15.345Z,48.42
2023-03-16T09:04:18.437Z,47.66
2023-03-16T09:07:21.103Z,46.09
2023-03-16T09:10:23.679Z,43.65
2023-03-16T09:13:26.360Z,44.75
2023-03-16T09:16:30.898Z,45.85
2023-03-16T09:19:50.113Z,46.82
2023-03-16T09:22:55.846Z,43.12
2023-03-16T09:26:03.302Z,41.81
2023-03-16T09:29:06.977Z,38.93
2023-03-16T09:32:10.120Z,36.85
2023-03-16T09:35:13.113Z,37.22
2023-03-16T09:38:16.077Z,35.93
2023-03-16T09:41:22.500Z,37.00
2023-03-16T09:44:40.016Z,34.75
2023-03-16T09:47:46.605Z,33.33
2023-03-16T09:50:49.991Z,33.96
2023-03-16T09:53:58.670Z,35.09
2023-03-16T09:57:02.063Z,32.35
2023-03-16T10:00:32.807Z,34.48
2023-03-16T10:04:21.872Z,32.88
2023-03-16T10:07:42.776Z,34.80
2023-03-16T10:10:55.278Z,33.85
2023-03-16T10:14:38.051Z,31.92
2023-03-16T10:17:57.066Z,31.54
2023-03-16T10:21:00.707Z,30.86
2023-03-16T10:24:06.907Z,30.88
2023-03-16T10:27:18.758Z,30.51
2023-03-16T10:30:38.818Z,33.53
2023-03-16T10:33:42.524Z,32.74
2023-03-16T10:36:45.798Z,33.99
2023-03-16T10:39:49.573Z,30.69
2023-03-16T10:42:53.602Z,31.47
2023-03-16T10:46:02.421Z,33.06
2023-03-16T10:49:06.298Z,31.90
2023-03-16T10:52:20.244Z,31.05
2023-03-16T10:55:34.160Z,32.47
2023-03-16T10:58:42.565Z,34.43
2023-03-16T11:01:49.290Z,37.27
2023-03-16T11:04:53.229Z,36.57
2023-03-16T11:08:13.602Z,34.84
2023-03-16T11:11:35.076Z,30.78
2023-03-16T11:14:37.729Z,30.48
2023-03-16T11:17:45.758Z,33.33
2023-03-16T11:20:48.427Z,32.63
2023-03-16T11:23:55.178Z,32.07
2023-03-16T11:27:04.565Z,30.70
2023-03-16T11:30:22.040Z,31.17
2023-03-16T11:33:27.321Z,29.17
2023-03-16T11:36:45.022Z,32.18
2023-03-16T11:40:15.423Z,33.09
2023-03-16T11:43:39.530Z,29.15
2023-03-16T11:47:05.107Z,30.92
2023-03-16T11:50:11.408Z,34.76
2023-03-16T11:53:55.343Z,34.31
2023-03-16T11:57:03.230Z,34.29
2023-03-16T12:00:30.742Z,32.38
2023-03-16T12:03:58.370Z,28.86
2023-03-16T12:07:09.562Z,31.08
2023-03-16T12:10:23.771Z,32.75
2023-03-16T12:13:53.510Z,31.62
2023-03-16T12:17:04.840Z,28.72
2023-03-16T12:20:18.696Z,30.73
2023-03-16T12:23:42.172Z,30.00
2023-03-16T12:26:46.297Z,28.42
2023-03-16T12:30:20.504Z,29.14
2023-03-16T12:33:44.978Z,29.35
2023-03-16T12:37:13.514Z,26.92
2023-03-16T12:40:30.146Z,27.99
2023-03-16T12:43:51.769Z,31.98
2023-03-16T12:47:03.476Z,29.44
2023-03-16T12:50:09.431Z,31.30
2023-03-16T12:53:28.877Z,31.21
2023-03-16T12:56:43.286Z,32.35
2023-03-16T12:59:50.894Z,30.39
2023-03-16T13:02:56.300Z,31.35
2023-03-16T13:06:00.945Z,32.95
2023-03-16T13:09:07.249Z,31.51
2023-03-16T13:12:21.550Z,30.96
2023-03-16T13:15:24.358Z,30.79
2023-03-16T13:18:36.061Z,30.92
2023-03-16T13:21:42.628Z,32.07
2023-03-16T13:24:55.471Z,31.50
2023-03-16T13:27:59.636Z,31.68
2023-03-16T13:31:02.964Z,33.04
2023-03-16T13:34:08.451Z,32.70
2023-03-16T13:37:15.200Z,32.62
2023-03-16T13:40:24.057Z,33.38
2023-03-16T13:43:31.977Z,33.87
2023-03-16T13:46:34.478Z,32.76
2023-03-16T13:49:48.773Z,33.23
2023-03-16T13:52:57.755Z,32.46
2023-03-16T13:56:02.809Z,32.05
2023-03-16T13:59:05.499Z,29.28
2023-03-16T14:02:19.374Z,30.63
2023-03-16T14:05:29.471Z,31.31
2023-03-16T14:08:34.052Z,32.10
2023-03-16T14:11:37.132Z,31.78
2023-03-16T14:14:41.613Z,29.89
2023-03-16T14:17:44.688Z,30.23
2023-03-16T14:20:51.496Z,30.04
2023-03-16T14:23:58.158Z,32.06
2023-03-16T14:27:27.586Z,32.56
2023-03-16T14:30:30.902Z,31.24
2023-03-16T14:33:40.178Z,32.77
2023-03-16T14:36:42.980Z,30.66
2023-03-16T14:40:01.730Z,30.92
2023-03-16T14:43:04.942Z,31.40
2023-03-16T14:46:08.480Z,32.96
2023-03-16T14:49:28.241Z,31.87
2023-03-16T14:52:32.670Z,32.64
2023-03-16T14:55:36.527Z,31.56
2023-03-16T14:58:40.320Z,32.75
2023-03-16T15:01:44.812Z,31.60
2023-03-16T15:04:48.782Z,30.62
2023-03-16T15:07:55.003Z,31.50
2023-03-16T15:11:06.814Z,32.73
2023-03-16T15:14:37.342Z,33.86
2023-03-16T15:17:39.703Z,32.94
2023-03-16T15:20:44.818Z,33.16
2023-03-16T15:23:48.052Z,33.68
2023-03-16T15:26:52.408Z,34.16
2023-03-16T15:29:54.761Z,34.06
2023-03-16T15:32:57.488Z,34.36
2023-03-16T15:36:03.453Z,35.48
2023-03-16T15:39:08.317Z,35.88
2023-03-16T15:42:19.145Z,35.23
2023-03-16T15:45:23.454Z,36.02
2023-03-16T15:48:26.312Z,37.27
2023-03-16T15:51:31.188Z,37.81
2023-03-16T15:54:36.945Z,38.05
2023-03-16T15:57:40.402Z,37.77
2023-03-16T16:00:43.339Z,38.39
2023-03-16T16:03:46.169Z,37.96
2023-03-16T16:06:50.272Z,38.13
2023-03-16T16:09:57.306Z,38.63
2023-03-16T16:13:01.455Z,38.96
2023-03-16T16:16:04.096Z,39.49
2023-03-16T16:19:06.531Z,39.75
2023-03-16T16:22:13.241Z,40.50
2023-03-16T16:25:16.493Z,41.84
2023-03-16T16:28:22.759Z,42.58
2023-03-16T16:31:27.955Z,42.93
2023-03-16T16:34:31.336Z,42.83
2023-03-16T16:37:33.804Z,43.31
2023-03-16T16:40:39.886Z,43.57
2023-03-16T16:43:47.144Z,43.89
2023-03-16T16:46:52.034Z,43.83
2023-03-16T16:49:54.478Z,44.84
2023-03-16T16:52:57.672Z,44.58
2023-03-16T16:56:00.462Z,46.19
2023-03-16T16:59:13.517Z,46.46
2023-03-16T17:02:44.706Z,46.60
2023-03-16T17:05:47.422Z,46.63
2023-03-16T17:08:50.499Z,47.19
2023-03-16T17:11:56.241Z,46.68
2023-03-16T17:14:58.905Z,45.84
2023-03-16T17:18:11.205Z,45.17
2023-03-16T17:21:16.087Z,45.45
2023-03-16T17:24:18.813Z,44.71
2023-03-16T17:27:31.537Z,44.07
2023-03-16T17:30:34.444Z,44.07
2023-03-16T17:33:37.196Z,43.63
2023-03-16T17:36:40.186Z,44.22
2023-03-16T17:39:44.621Z,44.24
2023-03-16T17:42:48.839Z,43.85
2023-03-16T17:45:52.525Z,43.87
2023-03-16T17:48:56.233Z,43.69
2023-03-16T17:51:59.044Z,43.82
2023-03-16T17:55:01.836Z,44.48
2023-03-16T17:58:05.858Z,44.06
2023-03-16T18:01:12.105Z,44.92
2023-03-16T18:04:23.444Z,45.13
2023-03-16T18:07:26.745Z,46.01
2023-03-16T18:10:31.526Z,46.94
2023-03-16T18:13:40.260Z,47.10
2023-03-16T18:16:43.339Z,47.50
2023-03-16T18:19:46.813Z,47.03
2023-03-16T18:22:50.432Z,46.82
2023-03-16T18:25:55.035Z,46.49
2023-03-16T18:28:59.367Z,45.16
2023-03-16T18:32:02.731Z,45.22
2023-03-16T18:35:06.820Z,45.35
2023-03-16T18:38:18.859Z,45.02
2023-03-16T18:41:24.359Z,44.61
2023-03-16T18:44:27.662Z,44.65
2023-03-16T18:47:32.636Z,45.21
2023-03-16T18:50:36.421Z,45.51
2023-03-16T18:53:39.107Z,45.39
2023-03-16T18:56:42.678Z,46.01
2023-03-16T18:59:45.994Z,46.48
2023-03-16T19:02:52.843Z,46.71
2023-03-16T19:05:57.668Z,46.79
2023-03-16T19:09:14.832Z,46.91
2023-03-16T19:12:21.250Z,46.70
2023-03-16T19:15:28.278Z,46.81
2023-03-16T19:18:31.497Z,46.66
2023-03-16T19:21:34.440Z,47.16
2023-03-16T19:24:48.676Z,47.46
2023-03-16T19:27:52.273Z,48.74
2023-03-16T19:30:56.991Z,51.34
2023-03-16T19:34:00.084Z,51.92
2023-03-16T19:37:04.549Z,52.02
2023-03-16T19:40:07.738Z,52.47
2023-03-16T19:43:21.670Z,52.98
2023-03-16T19:46:29.015Z,53.25
2023-03-16T19:49:31.896Z,54.09
2023-03-16T19:52:35.122Z,54.73
2023-03-16T19:55:38.225Z,57.08
2023-03-16T19:58:43.414Z,56.45
2023-03-16T20:01:47.481Z,56.87
2023-03-16T20:04:50.463Z,56.51
2023-03-16T20:07:55.398Z,56.38
2023-03-16T20:11:07.487Z,56.18
2023-03-16T20:14:20.231Z,56.86
2023-03-16T20:17:28.590Z,57.45
2023-03-16T20:20:37.593Z,57.50
2023-03-16T20:23:41.026Z,57.20
2023-03-16T20:26:44.778Z,56.84
2023-03-16T20:29:48.503Z,56.66
2023-03-16T20:32:52.010Z,55.94
2023-03-16T20:35:59.307Z,56.22
2023-03-16T20:39:03.162Z,56.17
2023-03-16T20:42:15.927Z,56.06
2023-03-16T20:45:20.986Z,56.09
2023-03-16T20:48:25.659Z,55.54
2023-03-16T20:51:28.961Z,56.16
2023-03-16T20:54:31.727Z,56.49
2023-03-16T20:57:35.055Z,57.16
2023-03-16T21:00:39.365Z,57.47
2023-03-16T21:03:42.283Z,57.80
2023-03-16T21:06:45.048Z,57.98
2023-03-16T21:09:50.359Z,58.08
2023-03-16T21:12:55.890Z,58.44
2023-03-16T21:16:01.668Z,58.58
2023-03-16T21:19:12.984Z,57.90
2023-03-16T21:22:26.962Z,58.45
2023-03-16T21:25:44.942Z,59.11
2023-03-16T21:29:18.346Z,59.87
2023-03-16T21:32:24.141Z,61.54
2023-03-16T21:35:32.688Z,62.34
2023-03-16T21:38:35.606Z,62.52
2023-03-16T21:41:38.146Z,61.98
2023-03-16T21:44:40.899Z,63.46
2023-03-16T21:47:44.226Z,62.97
2023-03-16T21:50:48.559Z,62.63
2023-03-16T21:53:51.963Z,63.11
2023-03-16T21:56:54.614Z,62.97
2023-03-16T21:59:57.272Z,63.96
2023-03-16T22:03:01.052Z,62.93
2023-03-16T22:06:04.113Z,61.86
2023-03-16T22:09:07.315Z,59.19
2023-03-16T22:12:11.710Z,57.25
2023-03-16T22:15:14.813Z,56.59
2023-03-16T22:18:38.512Z,55.80
2023-03-16T22:21:43.010Z,54.73
2023-03-16T22:24:46.116Z,54.10
2023-03-16T22:27:49.401Z,53.40
2023-03-16T22:30:52.745Z,53.50
2023-03-16T22:33:56.309Z,53.57
2023-03-16T22:37:00.664Z,53.78
2023-03-16T22:40:04.362Z,53.45
2023-03-16T22:43:16.607Z,53.73
2023-03-16T22:46:24.613Z,53.56
2023-03-16T22:49:28.354Z,53.57
2023-03-16T22:52:34.772Z,54.25
2023-03-16T22:55:39.675Z,56.81
2023-03-16T22:58:52.993Z,58.57
2023-03-16T23:01:56.514Z,59.07
2023-03-16T23:04:59.875Z,60.31
2023-03-16T23:08:12.266Z,61.03
2023-03-16T23:11:38.185Z,61.42
2023-03-16T23:14:41.333Z,62.07
2023-03-16T23:17:44.304Z,62.32
2023-03-16T23:20:48.077Z,63.22
2023-03-16T23:24:03.177Z,63.83
2023-03-16T23:27:18.469Z,64.93
2023-03-16T23:30:25.799Z,64.99
2023-03-16T23:33:28.356Z,65.70
2023-03-16T23:36:31.991Z,66.25
2023-03-16T23:39:34.698Z,66.63
2023-03-16T23:42:37.418Z,67.59
2023-03-16T23:45:46.618Z,67.81
2023-03-16T23:48:51.650Z,67.30
2023-03-16T23:51:56.295Z,67.12
2023-03-16T23:55:00.843Z,67.71
2023-03-16T23:58:04.001Z,67.78
